Time;durP1;ratioP1;P1;durP2;ratioP2;P2;SDS_P1;SDS_P2;PMS_P1;PMS_P2;Temp;Humidity;BMP_temperature;BMP_pressure;BME280_temperature;BME280_humidity;BME280_pressure;Samples;Min_cycle;Max_cycle;Signal;HPM_P1;HPM_P2
2023/02/27 00:01:32;;;;;;;26.17;16.47;;;-0.30;99.90;;;;;;5022006;28;20053;-72
2023/02/27 00:03:59;;;;;;;24.50;16.07;;;-0.40;99.90;;;;;;4993264;28;20061;-72
2023/02/27 00:06:26;;;;;;;26.60;16.17;;;-0.40;99.90;;;;;;5027143;28;20056;-72
2023/02/27 00:08:52;;;;;;;25.33;15.40;;;-0.40;99.90;;;;;;5013795;28;20050;-72
2023/02/27 00:11:17;;;;;;;23.03;13.73;;;-0.50;99.90;;;;;;5016901;28;20061;-72
2023/02/27 00:13:43;;;;;;;22.43;14.23;;;-0.50;99.90;;;;;;4992969;28;20495;-72
2023/02/27 00:16:09;;;;;;;23.17;14.17;;;-0.50;99.90;;;;;;4988841;28;20104;-71
2023/02/27 00:18:35;;;;;;;21.37;13.37;;;-0.50;99.90;;;;;;5009489;28;20045;-71
2023/02/27 00:21:01;;;;;;;18.77;12.30;;;-0.50;99.90;;;;;;5019106;28;20138;-71
2023/02/27 00:23:27;;;;;;;19.33;11.87;;;-0.50;99.90;;;;;;5007436;28;20128;-72
2023/02/27 00:25:55;;;;;;;18.50;11.80;;;-0.60;99.90;;;;;;5009061;28;20069;-71
2023/02/27 00:28:22;;;;;;;18.00;12.13;;;-0.60;99.90;;;;;;5009141;28;20084;-73
2023/02/27 00:30:48;;;;;;;17.23;11.87;;;-0.60;99.90;;;;;;5018535;28;20472;-71
2023/02/27 00:33:14;;;;;;;19.70;12.93;;;-0.70;99.90;;;;;;5019553;28;20064;-71
2023/02/27 00:35:40;;;;;;;17.20;11.97;;;-0.60;99.90;;;;;;5020270;28;20397;-72
2023/02/27 00:38:06;;;;;;;17.43;11.33;;;-0.70;99.90;;;;;;5032372;28;20052;-72
2023/02/27 00:40:34;;;;;;;18.43;11.83;;;-0.70;99.90;;;;;;4998154;28;20251;-72
2023/02/27 00:43:03;;;;;;;15.90;10.00;;;-0.70;99.90;;;;;;5000326;28;20042;-71
2023/02/27 00:45:29;;;;;;;15.37;9.77;;;-0.70;99.90;;;;;;5000283;28;20050;-71
2023/02/27 00:47:57;;;;;;;18.47;9.97;;;-0.70;99.90;;;;;;5001478;28;20064;-71
2023/02/27 00:50:27;;;;;;;16.30;11.10;;;-0.70;99.90;;;;;;5010897;28;20574;-71
2023/02/27 00:52:52;;;;;;;17.80;12.90;;;-0.70;99.90;;;;;;5026596;28;20060;-72
2023/02/27 00:55:18;;;;;;;17.83;12.20;;;-0.70;99.90;;;;;;5001163;28;20034;-72
2023/02/27 00:57:44;;;;;;;15.80;10.60;;;-0.70;99.90;;;;;;5004086;28;20053;-71
2023/02/27 01:00:11;;;;;;;15.23;10.73;;;-0.70;99.90;;;;;;5007624;28;20077;-71
2023/02/27 01:02:37;;;;;;;15.50;10.83;;;-0.60;99.90;;;;;;5001387;28;20042;-72
2023/02/27 01:05:04;;;;;;;14.23;9.57;;;-0.70;99.90;;;;;;5005171;28;20245;-72
2023/02/27 01:07:30;;;;;;;16.40;9.50;;;-0.60;99.90;;;;;;5034935;28;20128;-71
2023/02/27 01:09:56;;;;;;;11.90;7.67;;;-0.60;99.90;;;;;;5013420;28;20552;-71
2023/02/27 01:12:22;;;;;;;13.93;8.57;;;-0.70;99.90;;;;;;5037762;28;20087;-72
2023/02/27 01:14:48;;;;;;;14.13;7.60;;;-0.70;99.90;;;;;;5007248;28;21377;-72
2023/02/27 01:17:14;;;;;;;13.57;8.30;;;-0.70;99.90;;;;;;4999661;28;20038;-72
2023/02/27 01:19:40;;;;;;;13.93;9.07;;;-0.70;99.90;;;;;;5002074;28;20049;-71
2023/02/27 01:22:05;;;;;;;11.83;8.40;;;-0.80;99.90;;;;;;5006903;28;20053;-71
2023/02/27 01:24:32;;;;;;;12.47;8.30;;;-0.80;99.90;;;;;;5028980;28;20048;-72
2023/02/27 01:26:58;;;;;;;12.20;8.80;;;-0.80;99.90;;;;;;5008529;28;20042;-71
2023/02/27 01:29:24;;;;;;;13.40;8.00;;;-0.80;99.90;;;;;;5006856;28;20115;-71
2023/02/27 01:31:57;;;;;;;16.53;13.67;;;-0.80;99.90;;;;;;4994051;28;20587;-72
2023/02/27 01:34:23;;;;;;;16.70;10.83;;;-0.90;99.90;;;;;;5005956;28;20054;-72
2023/02/27 01:36:52;;;;;;;16.33;10.20;;;-0.90;99.90;;;;;;4999128;28;20056;-72
2023/02/27 01:39:18;;;;;;;16.33;11.03;;;-0.90;99.90;;;;;;5004797;28;20095;-71
2023/02/27 01:41:44;;;;;;;16.33;10.43;;;-0.80;99.90;;;;;;4988431;28;20045;-72
2023/02/27 01:44:12;;;;;;;13.57;9.33;;;-1.00;99.90;;;;;;5007726;28;20066;-72
2023/02/27 01:46:39;;;;;;;14.40;11.23;;;-1.00;99.90;;;;;;4992884;28;20064;-71
2023/02/27 01:49:20;;;;;;;16.67;11.27;;;-1.10;99.90;;;;;;5008179;28;20370;-71
2023/02/27 01:52:04;;;;;;;15.47;10.90;;;-1.10;99.90;;;;;;5009103;28;20081;-71
2023/02/27 01:54:34;;;;;;;17.03;11.50;;;-1.10;99.90;;;;;;5005896;28;20125;-72
2023/02/27 01:57:02;;;;;;;16.33;11.57;;;-1.00;99.90;;;;;;5017343;28;20392;-72
2023/02/27 01:59:28;;;;;;;14.67;9.57;;;-1.20;99.90;;;;;;5002934;28;20049;-71
2023/02/27 02:02:10;;;;;;;13.40;9.20;;;-1.20;99.90;;;;;;4995529;28;20053;-72
2023/02/27 02:04:39;;;;;;;16.00;9.20;;;-1.20;99.90;;;;;;5013488;28;20410;-71
2023/02/27 02:07:14;;;;;;;13.97;9.17;;;-1.20;99.90;;;;;;5009037;28;20436;-71
2023/02/27 02:09:45;;;;;;;12.73;8.73;;;-1.30;99.90;;;;;;5011075;28;20048;-71
2023/02/27 02:12:13;;;;;;;12.07;8.53;;;-1.30;99.90;;;;;;5014216;28;20057;-71
2023/02/27 02:14:42;;;;;;;11.80;8.40;;;-1.20;99.90;;;;;;5018424;28;20045;-71
2023/02/27 02:17:22;;;;;;;14.80;7.90;;;-1.30;99.90;;;;;;5010328;28;20397;-71
2023/02/27 02:19:48;;;;;;;11.25;6.85;;;-1.30;99.90;;;;;;5013441;28;20053;-71
2023/02/27 02:22:51;;;;;;;12.57;7.50;;;-1.20;99.90;;;;;;5017311;28;20873;-71
2023/02/27 02:25:38;;;;;;;10.07;6.87;;;-1.20;99.90;;;;;;5011928;28;20115;-71
2023/02/27 02:28:20;;;;;;;12.20;7.03;;;-1.20;99.90;;;;;;5010131;28;20049;-71
2023/02/27 02:30:52;;;;;;;13.00;6.80;;;-1.20;99.90;;;;;;4999742;28;20145;-71
2023/02/27 02:33:26;;;;;;;10.13;6.57;;;-1.10;99.90;;;;;;5024029;28;20053;-71
2023/02/27 02:36:21;;;;;;;11.13;6.40;;;-1.10;99.90;;;;;;5029893;28;20041;-71
2023/02/27 02:38:59;;;;;;;11.73;7.10;;;-1.10;99.90;;;;;;5018816;28;20111;-71
2023/02/27 02:41:47;;;;;;;12.10;6.63;;;-1.10;99.90;;;;;;5012635;28;20071;-71
2023/02/27 02:44:30;;;;;;;11.23;7.07;;;-1.00;99.90;;;;;;5009702;28;20077;-71
2023/02/27 02:47:11;;;;;;;11.80;7.53;;;-1.00;99.90;;;;;;5013354;28;20076;-72
2023/02/27 02:50:07;;;;;;;11.20;6.83;;;-0.90;99.90;;;;;;5011497;28;20042;-72
2023/02/27 02:53:06;;;;;;;14.00;7.47;;;-0.90;99.90;;;;;;5013345;28;20060;-72
2023/02/27 02:55:53;;;;;;;10.07;6.70;;;-0.90;99.90;;;;;;5006474;28;20481;-72
2023/02/27 02:58:45;;;;;;;9.30;6.07;;;-0.80;99.90;;;;;;5018015;28;20060;-72
2023/02/27 03:01:16;;;;;;;13.03;9.03;;;-0.80;99.90;;;;;;5010731;28;20505;-72
2023/02/27 03:04:06;;;;;;;9.47;6.90;;;-0.80;99.90;;;;;;5016473;28;20061;-72
2023/02/27 03:06:35;;;;;;;10.70;7.03;;;-0.80;99.90;;;;;;5021410;28;20534;-72
2023/02/27 03:09:35;;;;;;;10.30;5.97;;;-0.80;99.90;;;;;;5024166;28;20413;-72
2023/02/27 03:12:06;;;;;;;10.25;6.32;;;-0.80;99.90;;;;;;5021053;28;20113;-72
2023/02/27 03:14:40;;;;;;;14.30;6.90;;;-0.80;99.90;;;;;;5017062;28;20041;-72
2023/02/27 03:17:18;;;;;;;11.03;6.60;;;-0.80;99.90;;;;;;5016894;28;20084;-72
2023/02/27 03:20:00;;;;;;;9.97;6.70;;;-0.80;99.90;;;;;;5021305;28;20068;-72
2023/02/27 03:22:34;;;;;;;10.47;6.77;;;-0.80;99.90;;;;;;5011117;28;20511;-72
2023/02/27 03:25:03;;;;;;;10.33;6.13;;;-0.80;99.90;;;;;;5023534;28;20041;-72
2023/02/27 03:27:34;;;;;;;11.63;7.33;;;-0.90;99.90;;;;;;5010856;28;20114;-74
2023/02/27 03:30:05;;;;;;;10.77;6.80;;;-0.70;99.90;;;;;;5008470;28;20124;-74
2023/02/27 03:32:46;;;;;;;8.60;5.77;;;-0.90;99.90;;;;;;5023951;28;20424;-73
2023/02/27 03:35:13;;;;;;;10.30;5.90;;;-0.90;99.90;;;;;;5012131;28;20108;-73
2023/02/27 03:38:03;;;;;;;9.03;5.13;;;-0.90;99.90;;;;;;5010794;28;20095;-73
2023/02/27 03:40:42;;;;;;;;;;;-0.90;99.90;;;;;;5010490;28;20400;-73
2023/02/27 03:43:29;;;;;;;11.20;5.90;;;-1.00;99.90;;;;;;5006598;28;20035;-73
2023/02/27 03:46:07;;;;;;;10.03;5.33;;;-1.00;99.90;;;;;;5018870;28;20131;-71
2023/02/27 03:48:33;;;;;;;9.43;5.63;;;-1.00;99.90;;;;;;5021341;28;20041;-71
2023/02/27 03:50:59;;;;;;;9.60;4.93;;;-1.10;99.90;;;;;;5021252;28;20400;-72
2023/02/27 03:53:38;;;;;;;10.57;5.27;;;-1.10;99.90;;;;;;5023908;28;20049;-71
2023/02/27 03:56:10;;;;;;;11.23;6.23;;;-1.10;99.90;;;;;;5021190;28;20175;-71
2023/02/27 03:58:36;;;;;;;11.47;5.83;;;-1.10;99.90;;;;;;5007109;28;20044;-72
2023/02/27 04:01:02;;;;;;;11.57;5.63;;;-1.10;99.90;;;;;;5018741;28;20107;-72
2023/02/27 04:03:31;;;;;;;7.97;5.17;;;-1.10;99.90;;;;;;4996825;28;20328;-72
2023/02/27 04:07:21;;;;;;;9.93;5.90;;;-1.10;99.90;;;;;;5007483;28;20089;-72
2023/02/27 04:09:00;;;;;;;9.43;5.70;;;-1.10;99.90;;;;;;5007201;28;20316;-72
2023/02/27 04:11:46;;;;;;;8.00;5.38;;;-1.10;99.90;;;;;;5023912;28;20051;-72
2023/02/27 04:14:18;;;;;;;9.50;5.67;;;-1.10;99.90;;;;;;5023343;28;20530;-72
2023/02/27 04:16:59;;;;;;;10.47;5.17;;;-1.10;99.90;;;;;;5042240;28;20060;-72
2023/02/27 04:19:35;;;;;;;10.37;5.33;;;-1.10;99.90;;;;;;5024460;28;20456;-72
2023/02/27 04:22:12;;;;;;;10.40;5.87;;;-1.10;99.90;;;;;;5015829;28;20053;-72
2023/02/27 04:24:56;;;;;;;7.93;5.03;;;-1.20;99.90;;;;;;5032200;28;20041;-72
2023/02/27 04:27:39;;;;;;;10.90;5.13;;;-1.10;99.90;;;;;;5022977;28;20054;-72
2023/02/27 04:30:23;;;;;;;10.13;5.17;;;-1.20;99.90;;;;;;5023018;28;20064;-72
2023/02/27 04:32:53;;;;;;;9.23;4.60;;;-1.20;99.90;;;;;;5039315;28;20049;-72
2023/02/27 04:35:35;;;;;;;9.40;5.43;;;-1.30;99.90;;;;;;5005693;28;20140;-72
2023/02/27 04:38:16;;;;;;;9.93;4.77;;;-1.30;99.90;;;;;;5023268;28;20508;-72
2023/02/27 04:40:56;;;;;;;10.00;4.80;;;-1.30;99.90;;;;;;5016397;28;20064;-71
2023/02/27 04:43:25;;;;;;;8.50;5.28;;;-1.30;99.90;;;;;;5024572;28;20130;-72
2023/02/27 04:45:54;;;;;;;9.80;4.97;;;-1.30;99.90;;;;;;5021942;28;20045;-72
2023/02/27 04:48:32;;;;;;;8.80;4.90;;;-1.40;99.90;;;;;;5010678;28;20050;-72
2023/02/27 04:51:13;;;;;;;10.30;5.47;;;-1.30;99.90;;;;;;5015465;28;20053;-72
2023/02/27 04:54:12;;;;;;;10.57;5.27;;;-1.40;99.90;;;;;;5020250;28;20064;-72
2023/02/27 04:56:44;;;;;;;8.00;4.77;;;-1.50;99.90;;;;;;5023510;28;20056;-72
2023/02/27 04:59:35;;;;;;;9.40;4.57;;;-1.50;99.90;;;;;;5016368;28;20049;-72
2023/02/27 05:02:11;;;;;;;10.53;4.80;;;-1.50;99.90;;;;;;5019475;28;20131;-72
2023/02/27 05:04:41;;;;;;;8.53;4.47;;;-1.50;99.90;;;;;;5011493;28;20688;-72
2023/02/27 05:07:11;;;;;;;8.52;4.25;;;-1.50;99.90;;;;;;5039609;28;20115;-72
2023/02/27 05:09:43;;;;;;;;;;;-1.50;99.90;;;;;;5009183;28;20064;-73
2023/02/27 05:12:15;;;;;;;10.50;4.90;;;-1.50;99.90;;;;;;5024615;28;20363;-72
2023/02/27 05:14:58;;;;;;;6.83;4.00;;;-1.60;99.90;;;;;;5021212;28;20052;-72
2023/02/27 05:18:03;;;;;;;9.07;4.87;;;-1.50;99.90;;;;;;5014717;28;20451;-72
2023/02/27 05:20:51;;;;;;;7.87;4.50;;;-1.60;99.90;;;;;;5014603;28;20088;-72
2023/02/27 05:23:45;;;;;;;8.37;4.60;;;-1.60;99.90;;;;;;5008616;28;20723;-72
2023/02/27 05:26:36;;;;;;;7.40;4.20;;;-1.60;99.90;;;;;;5040329;28;20045;-73
2023/02/27 05:29:15;;;;;;;8.87;3.90;;;-1.60;99.90;;;;;;5009863;28;20092;-73
2023/02/27 05:32:03;;;;;;;8.83;4.50;;;-1.60;99.90;;;;;;5038347;28;20076;-72
2023/02/27 05:35:08;;;;;;;6.83;3.87;;;-1.60;99.90;;;;;;5037007;28;20038;-72
2023/02/27 05:37:45;;;;;;;7.60;4.50;;;-1.70;99.90;;;;;;4975825;28;20064;-72
2023/02/27 05:40:15;;;;;;;9.00;4.80;;;-1.70;99.90;;;;;;5023204;28;20076;-73
2023/02/27 05:42:48;;;;;;;9.03;4.93;;;-1.70;99.90;;;;;;5016166;28;20049;-73
2023/02/27 05:45:21;;;;;;;9.60;4.53;;;-1.70;99.90;;;;;;5019977;28;20065;-72
2023/02/27 05:47:55;;;;;;;11.23;4.97;;;-1.70;99.90;;;;;;5017112;28;20049;-73
2023/02/27 05:50:41;;;;;;;7.80;4.40;;;-1.70;99.90;;;;;;5036937;28;20065;-73
2023/02/27 05:53:14;;;;;;;8.00;4.40;;;-1.70;99.90;;;;;;5033290;28;20050;-72
2023/02/27 05:55:55;;;;;;;9.03;4.20;;;-1.80;99.90;;;;;;5011232;28;20048;-72
2023/02/27 05:58:41;;;;;;;9.13;5.17;;;-1.80;99.90;;;;;;5017718;28;20551;-72
2023/02/27 06:01:09;;;;;;;10.07;4.90;;;-1.80;99.90;;;;;;5005228;28;20060;-73
2023/02/27 06:03:36;;;;;;;10.50;5.43;;;-1.80;99.90;;;;;;5021938;28;20132;-72
2023/02/27 06:06:05;;;;;;;9.53;6.10;;;-1.80;99.90;;;;;;5004744;28;20054;-72
2023/02/27 06:08:32;;;;;;;10.70;5.60;;;-1.90;99.90;;;;;;5020652;28;20523;-72
2023/02/27 06:10:58;;;;;;;10.77;5.47;;;-1.80;99.90;;;;;;5021848;28;20532;-72
2023/02/27 06:13:27;;;;;;;9.60;4.80;;;-1.80;99.90;;;;;;5002544;28;20056;-73
2023/02/27 06:15:53;;;;;;;9.00;5.20;;;-1.90;99.90;;;;;;4999034;28;20050;-73
2023/02/27 06:18:19;;;;;;;8.77;4.73;;;-1.90;99.90;;;;;;5016102;28;20052;-74
2023/02/27 06:20:46;;;;;;;7.83;5.20;;;-1.90;99.90;;;;;;4990359;28;20064;-72
2023/02/27 06:23:12;;;;;;;9.43;5.50;;;-1.90;99.90;;;;;;5022468;28;20116;-73
2023/02/27 06:25:38;;;;;;;9.97;5.03;;;-1.80;99.90;;;;;;5016364;28;20057;-73
2023/02/27 06:28:04;;;;;;;9.03;5.23;;;-1.90;99.90;;;;;;5031754;28;20045;-73
2023/02/27 06:30:30;;;;;;;10.97;5.33;;;-1.90;99.90;;;;;;5024799;28;20110;-73
2023/02/27 06:32:56;;;;;;;9.60;5.70;;;-1.80;99.90;;;;;;5035742;28;20939;-73
2023/02/27 06:35:22;;;;;;;8.30;6.00;;;-1.80;99.90;;;;;;5018591;28;20045;-73
2023/02/27 06:37:48;;;;;;;12.00;6.07;;;-1.80;99.90;;;;;;5006263;28;20135;-73
2023/02/27 06:40:14;;;;;;;7.93;5.33;;;-1.80;99.90;;;;;;5023785;28;20045;-73
2023/02/27 06:42:42;;;;;;;10.17;5.43;;;-1.80;99.90;;;;;;4983374;28;20053;-73
2023/02/27 06:45:09;;;;;;;9.93;6.07;;;-1.70;99.90;;;;;;5004689;28;20137;-73
2023/02/27 06:47:35;;;;;;;9.57;5.90;;;-1.70;99.90;;;;;;5021474;28;20132;-73
2023/02/27 06:50:01;;;;;;;11.17;5.53;;;-1.60;99.90;;;;;;5016680;28;20128;-73
2023/02/27 06:52:27;;;;;;;10.90;5.30;;;-1.50;99.90;;;;;;5000080;28;20049;-73
2023/02/27 06:54:53;;;;;;;11.40;6.13;;;-1.50;99.90;;;;;;5018978;28;20046;-73
2023/02/27 06:57:18;;;;;;;8.97;5.10;;;-1.40;99.90;;;;;;5004913;28;20054;-73
2023/02/27 06:59:44;;;;;;;11.80;5.80;;;-1.30;99.90;;;;;;5034256;28;20228;-72
2023/02/27 07:02:12;;;;;;;8.80;5.80;;;-1.20;99.90;;;;;;4992102;28;20041;-73
2023/02/27 07:04:38;;;;;;;10.63;5.60;;;-1.20;99.90;;;;;;4996193;28;20559;-72
2023/02/27 07:07:04;;;;;;;12.73;5.40;;;-1.20;99.90;;;;;;4994143;28;20144;-73
2023/02/27 07:09:35;;;;;;;8.83;5.73;;;-1.20;99.90;;;;;;5019215;28;20137;-73
2023/02/27 07:12:01;;;;;;;10.40;5.50;;;-1.20;99.90;;;;;;5019063;28;20049;-73
2023/02/27 07:14:27;;;;;;;11.50;6.17;;;-1.30;99.90;;;;;;5011362;28;20049;-72
2023/02/27 07:16:53;;;;;;;10.67;6.17;;;-1.30;99.90;;;;;;5010284;28;20396;-72
2023/02/27 07:19:23;;;;;;;9.07;6.27;;;-1.30;99.90;;;;;;5006713;28;20048;-73
2023/02/27 07:21:49;;;;;;;9.43;6.03;;;-1.20;99.90;;;;;;5010803;28;20045;-72
2023/02/27 07:24:15;;;;;;;12.13;7.07;;;-1.30;99.90;;;;;;5008952;28;20064;-72
2023/02/27 07:26:40;;;;;;;12.90;6.77;;;-1.20;99.90;;;;;;5002465;28;20041;-72
2023/02/27 07:29:09;;;;;;;9.70;6.77;;;-1.00;99.90;;;;;;5007370;28;20037;-73
2023/02/27 07:31:38;;;;;;;10.37;6.50;;;-1.10;99.90;;;;;;5017294;28;20041;-72
2023/02/27 07:34:04;;;;;;;9.73;7.40;;;-1.00;99.90;;;;;;4999470;28;20080;-72
2023/02/27 07:36:30;;;;;;;11.23;8.13;;;-1.00;99.90;;;;;;5016635;28;20488;-72
2023/02/27 07:38:57;;;;;;;14.03;7.80;;;-0.90;99.90;;;;;;4992170;28;20404;-72
2023/02/27 07:41:23;;;;;;;8.97;7.07;;;-0.90;99.90;;;;;;5014382;28;20053;-72
2023/02/27 07:43:49;;;;;;;11.53;6.93;;;-0.80;99.90;;;;;;5017830;28;20513;-72
2023/02/27 07:46:15;;;;;;;12.50;8.23;;;-0.80;99.90;;;;;;5005241;28;20064;-72
2023/02/27 07:48:40;;;;;;;9.13;6.50;;;-0.60;99.90;;;;;;5019917;28;20069;-72
2023/02/27 07:51:06;;;;;;;11.57;7.50;;;-0.60;99.90;;;;;;5026874;28;20539;-72
2023/02/27 07:53:32;;;;;;;12.27;8.80;;;-0.50;99.90;;;;;;5018341;28;20045;-72
2023/02/27 07:55:58;;;;;;;11.03;7.00;;;-0.40;99.90;;;;;;5028296;28;20057;-72
2023/02/27 07:58:25;;;;;;;12.13;7.50;;;-0.30;99.90;;;;;;5011610;28;20484;-72
2023/02/27 08:00:52;;;;;;;12.53;7.63;;;-0.20;99.90;;;;;;5010177;28;20084;-72
2023/02/27 08:03:18;;;;;;;11.83;7.37;;;-0.10;99.90;;;;;;5024925;28;20048;-72
2023/02/27 08:05:44;;;;;;;12.53;7.20;;;-0.10;99.90;;;;;;5026948;28;20049;-72
2023/02/27 08:08:10;;;;;;;10.90;6.80;;;0.20;99.90;;;;;;4990567;28;20093;-72
2023/02/27 08:10:36;;;;;;;12.13;7.20;;;0.10;99.90;;;;;;5014740;28;20053;-72
2023/02/27 08:13:02;;;;;;;13.13;6.40;;;0.20;99.90;;;;;;5025686;28;20616;-72
2023/02/27 08:15:28;;;;;;;12.37;6.57;;;0.30;99.90;;;;;;5019185;28;20096;-72
2023/02/27 08:17:57;;;;;;;15.07;6.37;;;0.40;99.90;;;;;;4991010;28;20389;-74
2023/02/27 08:20:23;;;;;;;15.77;6.63;;;0.40;99.90;;;;;;4997212;28;20441;-74
2023/02/27 08:22:49;;;;;;;15.97;7.50;;;0.50;99.90;;;;;;5040605;28;20463;-74
2023/02/27 08:25:15;;;;;;;12.50;7.13;;;0.60;99.90;;;;;;5012357;28;20092;-74
2023/02/27 08:27:41;;;;;;;13.17;6.47;;;0.70;99.90;;;;;;5014170;28;20200;-74
2023/02/27 08:30:09;;;;;;;12.97;6.70;;;0.80;99.90;;;;;;4992766;28;20049;-74
2023/02/27 08:32:35;;;;;;;13.73;6.97;;;0.90;99.90;;;;;;5023488;28;20060;-74
2023/02/27 08:35:01;;;;;;;14.13;7.30;;;1.00;99.90;;;;;;5013990;28;20049;-75
2023/02/27 08:37:28;;;;;;;12.30;7.17;;;1.10;99.90;;;;;;4990272;28;20120;-76
2023/02/27 08:39:54;;;;;;;16.33;7.87;;;1.30;99.90;;;;;;5012000;28;20045;-75
2023/02/27 08:42:20;;;;;;;15.13;7.50;;;1.40;99.90;;;;;;5001856;28;20057;-75
2023/02/27 08:44:49;;;;;;;10.97;7.60;;;1.50;99.90;;;;;;4984750;28;20056;-74
2023/02/27 08:47:16;;;;;;;14.87;7.10;;;1.60;99.90;;;;;;5008859;28;20060;-74
2023/02/27 08:49:41;;;;;;;12.83;6.33;;;1.70;99.90;;;;;;5015594;28;20076;-74
2023/02/27 08:52:10;;;;;;;11.37;6.30;;;1.80;99.90;;;;;;4999145;28;20097;-74
2023/02/27 08:54:36;;;;;;;13.77;5.53;;;1.90;99.90;;;;;;5014273;28;20526;-75
2023/02/27 08:57:03;;;;;;;12.67;5.90;;;2.00;99.90;;;;;;4979878;28;20054;-74
2023/02/27 08:59:30;;;;;;;12.07;5.33;;;2.10;99.90;;;;;;5021418;28;20116;-74
2023/02/27 09:01:56;;;;;;;13.63;6.27;;;2.30;99.90;;;;;;5023395;28;20052;-74
2023/02/27 09:04:22;;;;;;;7.37;4.93;;;2.30;99.90;;;;;;5024204;28;20407;-72
2023/02/27 09:06:47;;;;;;;9.43;4.70;;;2.40;99.90;;;;;;5004674;28;20057;-72
2023/02/27 09:09:13;;;;;;;11.17;5.20;;;2.50;99.90;;;;;;5018773;28;20048;-72
2023/02/27 09:11:39;;;;;;;10.70;3.97;;;2.60;99.90;;;;;;5036033;28;20269;-72
2023/02/27 09:14:06;;;;;;;12.30;4.63;;;2.70;99.90;;;;;;5019126;28;20103;-72
2023/02/27 09:16:32;;;;;;;9.03;5.07;;;2.80;99.90;;;;;;5005451;28;20084;-72
2023/02/27 09:18:57;;;;;;;11.13;6.77;;;2.90;99.90;;;;;;5009504;28;20048;-72
2023/02/27 09:21:24;;;;;;;9.30;5.17;;;2.90;99.90;;;;;;5018475;28;20112;-72
2023/02/27 09:23:51;;;;;;;12.20;5.10;;;3.10;99.90;;;;;;5036191;28;20073;-73
2023/02/27 09:26:17;;;;;;;11.30;5.63;;;3.10;99.90;;;;;;5006104;28;20049;-73
2023/02/27 09:28:43;;;;;;;8.63;4.27;;;3.20;99.90;;;;;;4989568;28;20049;-74
2023/02/27 09:31:10;;;;;;;9.33;4.97;;;3.30;99.90;;;;;;5010921;28;20706;-73
2023/02/27 09:33:37;;;;;;;10.90;4.45;;;3.30;99.90;;;;;;5019965;28;20053;-73
2023/02/27 09:36:07;;;;;;;9.52;4.95;;;3.40;99.90;;;;;;5022022;28;20072;-73
2023/02/27 09:38:34;;;;;;;8.20;4.43;;;3.50;99.90;;;;;;5019298;28;20938;-74
2023/02/27 09:41:01;;;;;;;10.07;4.20;;;3.50;99.90;;;;;;5005706;28;20053;-73
2023/02/27 09:43:39;;;;;;;7.20;3.85;;;3.60;99.90;;;;;;5021063;28;20052;-73
2023/02/27 09:46:06;;;;;;;7.35;3.70;;;3.70;99.90;;;;;;5021242;28;20107;-73
2023/02/27 09:48:46;;;;;;;7.80;3.58;;;3.80;99.90;;;;;;5008229;28;20081;-73
2023/02/27 09:51:14;;;;;;;8.82;3.17;;;3.90;99.90;;;;;;5017653;28;20065;-73
2023/02/27 09:53:44;;;;;;;10.77;3.33;;;4.00;99.90;;;;;;5018373;28;20185;-73
2023/02/27 09:56:29;;;;;;;8.27;4.95;;;4.20;99.90;;;;;;5016340;28;20041;-72
2023/02/27 09:59:30;;;;;;;8.50;3.17;;;4.30;99.90;;;;;;5015720;28;20049;-75
2023/02/27 10:02:07;;;;;;;;;;;4.40;99.90;;;;;;5006667;28;20156;-74
2023/02/27 10:04:36;;;;;;;9.00;2.90;;;4.60;99.90;;;;;;5004434;28;19925;-73
2023/02/27 10:07:16;;;;;;;10.30;3.13;;;4.60;99.90;;;;;;5023094;28;20158;-73
2023/02/27 10:10:03;;;;;;;7.85;2.80;;;4.70;99.90;;;;;;5007348;28;20130;-73
2023/02/27 10:13:03;;;;;;;6.95;2.30;;;4.90;99.90;;;;;;5021763;28;20081;-71
2023/02/27 10:15:46;;;;;;;7.00;1.80;;;5.00;99.90;;;;;;5017298;28;20114;-71
2023/02/27 10:18:15;;;;;;;6.57;2.08;;;5.10;99.90;;;;;;5007849;28;20115;-72
2023/02/27 10:20:53;;;;;;;8.80;2.22;;;5.20;99.90;;;;;;5012596;28;20079;-73
2023/02/27 10:23:42;;;;;;;7.65;2.30;;;5.20;99.90;;;;;;5008462;28;20041;-71
2023/02/27 10:26:21;;;;;;;8.55;2.28;;;5.30;99.90;;;;;;5022578;28;20619;-73
2023/02/27 10:28:47;;;;;;;6.72;2.55;;;5.40;99.90;;;;;;5003099;28;20497;-72
2023/02/27 10:31:29;;;;;;;7.65;2.13;;;5.40;99.90;;;;;;5024647;28;20057;-72
2023/02/27 10:33:57;;;;;;;6.72;1.77;;;5.50;99.90;;;;;;5024423;28;20049;-73
2023/02/27 10:36:26;;;;;;;6.40;2.08;;;5.60;99.90;;;;;;5010220;28;20061;-73
2023/02/27 10:38:59;;;;;;;4.90;1.45;;;5.70;99.90;;;;;;5014551;28;20033;-73
2023/02/27 10:41:26;;;;;;;6.28;1.77;;;5.80;99.90;;;;;;5031586;28;20046;-72
2023/02/27 10:44:00;;;;;;;4.88;1.40;;;5.90;99.90;;;;;;5019452;28;20049;-73
2023/02/27 10:46:31;;;;;;;6.47;1.50;;;5.90;99.90;;;;;;5021221;28;20107;-74
2023/02/27 10:49:09;;;;;;;5.15;1.70;;;6.00;99.90;;;;;;5030590;28;20378;-72
2023/02/27 10:51:37;;;;;;;5.20;1.30;;;6.00;99.90;;;;;;5024409;28;20080;-72
2023/02/27 10:54:13;;;;;;;8.05;1.20;;;6.00;99.90;;;;;;5014538;28;20045;-72
2023/02/27 10:56:39;;;;;;;6.93;1.48;;;6.00;99.90;;;;;;5016048;28;20485;-73
2023/02/27 10:59:15;;;;;;;6.20;1.20;;;6.10;99.90;;;;;;4998740;28;20117;-72
2023/02/27 11:01:57;;;;;;;3.78;1.10;;;6.20;99.90;;;;;;5026927;28;20523;-72
2023/02/27 11:04:25;;;;;;;2.88;0.60;;;6.30;99.90;;;;;;5008799;28;20072;-72
2023/02/27 11:06:57;;;;;;;4.70;0.85;;;6.40;99.90;;;;;;5015191;28;20060;-73
2023/02/27 11:09:27;;;;;;;3.25;0.70;;;6.50;99.90;;;;;;5020679;28;20069;-72
2023/02/27 11:11:53;;;;;;;3.38;1.02;;;6.50;99.90;;;;;;5019447;28;20053;-72
2023/02/27 11:14:29;;;;;;;1.77;0.70;;;6.50;99.90;;;;;;5013690;28;20056;-75
2023/02/27 11:17:02;;;;;;;3.55;0.90;;;6.50;96.80;;;;;;5032059;28;20046;-76
2023/02/27 11:19:34;;;;;;;3.35;0.80;;;6.60;98.80;;;;;;5006901;28;20088;-76
2023/02/27 11:22:06;;;;;;;4.03;1.30;;;6.60;98.80;;;;;;5011214;28;20048;-76
2023/02/27 11:24:33;;;;;;;5.18;1.13;;;6.70;96.50;;;;;;4996972;28;20045;-73
2023/02/27 11:27:05;;;;;;;4.13;1.00;;;6.60;97.00;;;;;;5000988;28;20520;-71
2023/02/27 11:29:33;;;;;;;3.05;0.90;;;6.60;96.70;;;;;;5024148;28;20046;-72
2023/02/27 11:32:13;;;;;;;5.18;1.20;;;6.60;97.60;;;;;;5005127;28;20041;-71
2023/02/27 11:34:46;;;;;;;3.95;0.90;;;6.50;96.30;;;;;;5014150;28;20065;-72
2023/02/27 11:37:25;;;;;;;4.18;1.30;;;6.40;97.50;;;;;;4999188;28;20062;-73
2023/02/27 11:40:13;;;;;;;4.67;1.00;;;6.50;99.60;;;;;;5036025;28;20049;-72
2023/02/27 11:42:49;;;;;;;3.38;0.90;;;6.50;98.40;;;;;;5033186;28;20660;-72
2023/02/27 11:45:34;;;;;;;2.42;0.60;;;6.50;96.60;;;;;;5000890;28;20395;-72
2023/02/27 11:48:11;;;;;;;2.63;0.60;;;6.50;94.00;;;;;;5030661;28;20049;-72
2023/02/27 11:51:03;;;;;;;2.88;0.60;;;6.60;92.10;;;;;;5016794;28;20057;-75
2023/02/27 11:53:44;;;;;;;3.75;0.73;;;6.60;93.20;;;;;;5009904;28;20548;-76
2023/02/27 11:56:19;;;;;;;3.97;0.75;;;6.70;92.30;;;;;;5024468;28;20160;-76
2023/02/27 11:59:01;;;;;;;2.63;0.77;;;6.70;92.00;;;;;;5049869;28;20053;-75
2023/02/27 12:01:41;;;;;;;2.83;0.85;;;6.70;92.40;;;;;;5034658;28;20050;-76
2023/02/27 12:04:32;;;;;;;4.05;0.98;;;6.80;93.30;;;;;;5027096;28;20129;-76
2023/02/27 12:07:06;;;;;;;3.40;0.80;;;6.90;92.40;;;;;;5021094;28;20121;-75
2023/02/27 12:09:56;;;;;;;1.90;0.80;;;6.90;91.60;;;;;;5019947;28;20328;-76
2023/02/27 12:12:49;;;;;;;2.28;0.93;;;7.00;90.40;;;;;;4990149;28;20527;-76
2023/02/27 12:15:25;;;;;;;4.05;0.95;;;7.00;89.70;;;;;;5017975;28;20060;-76
2023/02/27 12:18:03;;;;;;;3.38;0.80;;;6.90;90.60;;;;;;5014657;28;20320;-75
2023/02/27 12:20:34;;;;;;;3.42;1.15;;;6.90;91.10;;;;;;5016126;28;20050;-75
2023/02/27 12:23:12;;;;;;;3.20;0.88;;;6.90;91.50;;;;;;5007767;28;20064;-75
2023/02/27 12:25:51;;;;;;;3.00;0.73;;;6.90;91.10;;;;;;5011601;28;20069;-76
2023/02/27 12:28:36;;;;;;;2.78;0.80;;;6.80;91.90;;;;;;5022621;28;20084;-76
2023/02/27 12:31:36;;;;;;;2.40;1.00;;;6.80;91.50;;;;;;5024408;28;20421;-76
2023/02/27 12:34:24;;;;;;;3.53;0.80;;;6.80;91.30;;;;;;5027806;28;20515;-75
2023/02/27 12:36:52;;;;;;;3.75;1.00;;;6.70;92.30;;;;;;5029761;28;20044;-75
2023/02/27 12:39:22;;;;;;;3.05;0.93;;;6.90;92.00;;;;;;5007300;28;20057;-73
2023/02/27 12:42:16;;;;;;;3.63;1.05;;;6.90;91.70;;;;;;5015879;28;20060;-72
2023/02/27 12:44:41;;;;;;;4.60;0.90;;;7.00;90.30;;;;;;4990657;28;20138;-70
2023/02/27 12:47:38;;;;;;;3.30;1.00;;;6.90;91.40;;;;;;5024444;28;20128;-71
2023/02/27 12:50:11;;;;;;;3.25;1.13;;;6.90;91.20;;;;;;5021103;28;20049;-72
2023/02/27 12:52:53;;;;;;;3.22;0.95;;;6.80;91.30;;;;;;5006098;28;20175;-72
2023/02/27 12:55:38;;;;;;;2.55;1.00;;;6.80;92.00;;;;;;5040935;28;20099;-72
2023/02/27 12:58:45;;;;;;;3.33;1.10;;;6.80;92.70;;;;;;5005653;28;20095;-72
2023/02/27 13:01:20;;;;;;;3.83;1.45;;;7.00;94.70;;;;;;4993313;28;20060;-72
2023/02/27 13:03:59;;;;;;;4.47;1.35;;;7.00;94.40;;;;;;5019467;28;20055;-72
2023/02/27 13:06:40;;;;;;;3.35;1.00;;;7.10;94.50;;;;;;5008355;28;20141;-73
2023/02/27 13:09:37;;;;;;;2.60;0.88;;;7.20;93.40;;;;;;5037210;28;20058;-72
2023/02/27 13:12:32;;;;;;;2.75;1.00;;;7.10;93.60;;;;;;5019661;28;20518;-73
2023/02/27 13:15:21;;;;;;;2.33;0.98;;;7.00;93.40;;;;;;5006841;28;20049;-73
2023/02/27 13:18:06;;;;;;;2.13;0.90;;;6.90;93.80;;;;;;5005135;28;20081;-72